Have a Safe July 4th! 

Flight Track Log - Related Links

Times and Time Zones

All times are in EST time to prevent confusion due to time zone crossing. See the C-GRJR flight status page for this flight to view local times or setup timezone preferences in your user account.

Time Position Orientation Groundspeed Altitude Reporting Facility
EST Latitude Longitude Course Direction KTS MPH feet Rate Location/Type
Thu 03:00:37 PM 33.7833 -84.5833 172° South 156 180 2,700  Level Atlanta TRACON
Thu 03:01:31 PM 33.7667 -84.6333 248° West 218 251 3,000 158 Climbing Atlanta TRACON
Thu 03:02:31 PM 33.7000 -84.6667 203° Southwest 239 275 3,000  Level Atlanta TRACON
Thu 03:03:31 PM 33.6500 -84.6667 180° South 235 270 3,000  Level Atlanta TRACON
Thu 03:04:31 PM 33.5833 -84.6500 168° South 235 270 3,000  Level Atlanta TRACON
Thu 03:05:31 PM 33.5167 -84.6500 180° South 232 267 3,000 350 Level Atlanta TRACON
Thu 03:06:00 PM 33.2660 -84.3217 172° South  Level Estimated
Thu 03:06:31 PM 33.4500 -84.6500 180° South 237 273 3,700  Level Atlanta TRACON
Thu 03:07:31 PM 33.3833 -84.6333 168° South 239 275 4,700 1,041 Climbing Atlanta TRACON
Thu 03:08:32 PM 33.3167 -84.6333 180° South 244 281 5,800 1,091 Climbing Atlanta TRACON
Thu 03:09:32 PM 33.2500 -84.6167 168° South 245 282 6,900 1,225 Climbing Atlanta TRACON
Thu 03:10:54 PM 33.1522 -84.6094 176° South 255 293 8,700 1,268 Climbing Atlanta Center
Thu 03:11:54 PM 33.0894 -84.6017 174° South 244 281 9,900 1,000 Climbing Atlanta Center
Thu 03:12:54 PM 33.0186 -84.5939 175° South 244 281 10,700 550 Climbing Atlanta Center
Thu 03:13:54 PM 32.9414 -84.5833 173° South 263 303 11,000 650 Climbing Atlanta Center
Thu 03:14:54 PM 32.8622 -84.5706 172° South 284 327 12,000 1,050 Climbing Atlanta Center
Thu 03:15:54 PM 32.7828 -84.5650 177° South 290 334 13,100 1,100 Climbing Atlanta Center
Thu 03:16:54 PM 32.7056 -84.5547 174° South 290 334 14,200 1,150 Climbing Atlanta Center
Thu 03:17:54 PM 32.6283 -84.5494 177° South 285 328 15,400 1,450 Climbing Atlanta Center
Thu 03:18:54 PM 32.5533 -84.5442 177° South 285 328 17,100 1,400 Climbing Atlanta Center
Thu 03:19:54 PM 32.4742 -84.5386 177° South 275 316 18,200 1,250 Climbing Atlanta Center
Thu 03:20:54 PM 32.3989 -84.5308 175° South 275 316 19,600 1,300 Climbing Atlanta Center
Thu 03:21:54 PM 32.3217 -84.5231 175° South 275 316 20,800 1,100 Climbing Atlanta Center
Thu 03:22:54 PM 32.2425 -84.5178 177° South 275 316 21,800 1,050 Climbing Atlanta Center
Thu 03:23:54 PM 32.1611 -84.5125 177° South 283 326 22,900 1,000 Climbing Atlanta Center
Thu 03:24:54 PM 32.0756 -84.5044 175° South 300 345 23,800 1,000 Climbing Atlanta Center
Thu 03:25:54 PM 31.9900 -84.4944 174° South 306 352 24,900 621 Climbing Atlanta Center
Thu 03:26:50 PM 31.9039 -84.4881 176° South 311 358 25,000 52 Climbing Jacksonville Center
Thu 03:27:50 PM 31.8206 -84.4794 175° South 311 358 25,000  Level Jacksonville Center
Thu 03:28:50 PM 31.7225 -84.4728 177° South 333 383 25,000  Level Jacksonville Center
Thu 03:29:50 PM 31.6222 -84.4639 176° South 357 411 25,000  Level Jacksonville Center
Thu 03:30:50 PM 31.5222 -84.4547 176° South 362 417 25,000  Level Jacksonville Center
Thu 03:31:51 PM 31.4094 -84.4456 176° South 362 417 25,000  Level Jacksonville Center
Thu 03:32:51 PM 31.3094 -84.4367 176° South 362 417 25,000  Level Jacksonville Center
Thu 03:33:50 PM 31.2117 -84.4083 166° South 362 417 25,000  Level Jacksonville Center
Thu 03:34:51 PM 31.1139 -84.3728 163° South 367 422 25,000  Level Jacksonville Center
Thu 03:35:50 PM 31.0183 -84.3350 161° South 367 422 25,000  Level Jacksonville Center
Thu 03:36:50 PM 30.9206 -84.2994 163° South 367 422 25,000  Level Jacksonville Center
Thu 03:37:50 PM 30.8228 -84.2642 163° South 367 422 25,000  Level Jacksonville Center
Thu 03:38:50 PM 30.7250 -84.2267 162° South 367 422 25,000  Level Jacksonville Center
Thu 03:39:50 PM 30.6275 -84.1889 162° South 367 422 25,000  Level Jacksonville Center
Thu 03:40:50 PM 30.5400 -84.1589 164° South 367 422 25,000  Level Jacksonville Center
Thu 03:41:50 PM 30.4444 -84.1239 162° South 367 422 25,000  Level Jacksonville Center
Thu 03:42:50 PM 30.3444 -84.0864 162° South 362 417 25,000  Level Jacksonville Center
Thu 03:43:50 PM 30.2467 -84.0517 163° South 362 417 25,000  Level Jacksonville Center
Thu 03:44:50 PM 30.1467 -84.0167 163° South 362 417 25,000  Level Jacksonville Center
Thu 03:45:50 PM 30.0489 -83.9794 162° South 367 422 25,000  Level Jacksonville Center
Thu 03:46:50 PM 29.9489 -83.9425 162° South 367 422 25,000  Level Jacksonville Center
Thu 03:47:50 PM 29.8492 -83.9078 163° South 372 428 25,000  Level Jacksonville Center
Thu 03:48:50 PM 29.7556 -83.8542 154° Southeast 372 428 25,000  Level Jacksonville Center
Thu 03:49:50 PM 29.6619 -83.7936 151° Southeast 377 434 25,000  Level Jacksonville Center
Thu 03:50:50 PM 29.5706 -83.7356 151° Southeast 377 434 25,000  Level Jacksonville Center
Thu 03:51:50 PM 29.4769 -83.6750 151° Southeast 382 440 25,000  Level Jacksonville Center
Thu 03:52:50 PM 29.3833 -83.6147 151° Southeast 382 440 25,000  Level Jacksonville Center
Thu 03:53:50 PM 29.2919 -83.5544 150° Southeast 382 440 25,000  Level Jacksonville Center
Thu 03:54:50 PM 29.1961 -83.4967 152° Southeast 382 440 25,000  Level Jacksonville Center
Thu 03:55:50 PM 29.1047 -83.4369 150° Southeast 382 440 25,000  Level Jacksonville Center
Thu 03:56:51 PM 29.0108 -83.3792 152° Southeast 382 440 25,000  Level Jacksonville Center
Thu 03:57:50 PM 28.9131 -83.3339 158° South 382 440 25,000  Level Jacksonville Center
Thu 03:58:51 PM 28.8086 -83.3403 183° South 367 422 25,000  Level Jacksonville Center
Thu 03:59:50 PM 28.7064 -83.3447 182° South 372 428 25,000  Level Jacksonville Center
Thu 04:00:51 PM 28.6000 -83.3514 183° South 372 428 25,000  Level Jacksonville Center
Thu 04:01:50 PM 28.4975 -83.3531 181° South 378 435 25,000  Level Jacksonville Center
Thu 04:04:10 PM 28.2428 -83.3644 182° South 387 445 25,000  Level Miami Center
Thu 04:05:10 PM 28.1436 -83.3469 171° South 375 432 25,000 -200 Level Miami Center
Thu 04:06:10 PM 28.0503 -83.2875 151° Southeast 370 426 24,600 -450 Descending Miami Center
Thu 04:07:10 PM 27.9572 -83.2236 149° Southeast 376 433 24,100 -500 Descending Miami Center
Thu 04:08:10 PM 27.8639 -83.1667 152° Southeast 381 438 23,600 -500 Descending Miami Center
Thu 04:09:10 PM 27.7767 -83.1078 149° Southeast 374 430 23,100 -600 Descending Miami Center
Thu 04:10:10 PM 27.6914 -83.0517 150° Southeast 363 418 22,400 -650 Descending Miami Center
Thu 04:11:10 PM 27.6083 -82.9981 150° Southeast 352 405 21,800 -700 Descending Miami Center
Thu 04:12:10 PM 27.5250 -82.9444 150° Southeast 352 405 21,000 -750 Descending Miami Center
Thu 04:13:10 PM 27.4397 -82.8908 151° Southeast 347 399 20,300 -750 Descending Miami Center
Thu 04:14:10 PM 27.3667 -82.8403 148° Southeast 341 392 19,500 -1,400 Descending Miami Center
Thu 04:15:10 PM 27.2711 -82.7814 151° Southeast 347 399 17,500 -2,000 Descending Miami Center
Thu 04:16:10 PM 27.1939 -82.7308 150° Southeast 339 390 15,500 -2,000 Descending Miami Center
Thu 04:17:10 PM 27.1206 -82.6828 150° Southeast 322 371 13,500 -1,950 Descending Miami Center
Thu 04:18:10 PM 27.0453 -82.6347 150° Southeast 308 354 11,600 -1,400 Descending Miami Center
Thu 04:19:10 PM 26.9722 -82.5869 150° Southeast 308 354 10,700 -727 Descending Miami Center
Thu 04:20:22 PM 26.9047 -82.5464 152° Southeast 296 341 10,000 -455 Descending Miami Center
Thu 04:21:22 PM 26.8256 -82.4961 150° Southeast 290 334 9,700 -500 Descending Miami Center
Thu 04:22:22 PM 26.7561 -82.4508 150° Southeast 290 334 9,000 -700 Descending Miami Center
Thu 04:23:22 PM 26.6869 -82.4081 151° Southeast 290 334 8,300 -700 Descending Miami Center
Thu 04:24:22 PM 26.6175 -82.3631 150° Southeast 284 327 7,600 -650 Descending Miami Center
Thu 04:25:22 PM 26.5547 -82.3136 145° Southeast 279 321 7,000 -300 Descending Miami Center
Thu 04:26:22 PM 26.4917 -82.2714 149° Southeast 273 314 7,000  Level Miami Center
Thu 04:27:22 PM 26.4247 -82.2219 147° Southeast 268 308 7,000  Level Miami Center
Thu 04:28:22 PM 26.3594 -82.1747 147° Southeast 273 314 7,000  Level Miami Center
Thu 04:29:22 PM 26.3031 -82.1192 139° Southeast 273 314 7,000  Level Miami Center
Thu 04:31:00 PM 26.1836 -82.0336 138° Southeast  Level FlightAware Approximate
Thu 04:38:00 PM 26.1524 -81.7756 66° East  Level Estimated
Thu 04:39:00 PM 26.1524 -81.7756 66° East  Level Estimated
Thu 04:40:00 PM 26.1524 -81.7756 66° East  Level Estimated
Thu 04:41:00 PM 26.1524 -81.7756 66° East  Level Estimated
Thu 04:42:00 PM 26.1524 -81.7756 66° East  Level Estimated
Thu 04:43:00 PM 26.1524 -81.7756 66° East  Level Estimated
Thu 04:44:00 PM 26.1524 -81.7756 66° East  Level Estimated
Thu 04:45:00 PM 26.1524 -81.7756 66° East  Level Estimated
Thu 04:46:00 PM 26.1524 -81.7756 66° East  Level Estimated
Thu 04:47:00 PM 26.1524 -81.7756 66° East  Level Estimated
Thu 04:48:00 PM 26.1524 -81.7756 66° East  Level Estimated

Login

Don't have an account? Register now (free) for customized features, flight alerts, and more!